Time;durP1;ratioP1;P1;durP2;ratioP2;P2;SDS_P1;SDS_P2;PMS_P1;PMS_P2;Temp;Humidity;BMP_temperature;BMP_pressure;BME280_temperature;BME280_humidity;BME280_pressure;Samples;Min_cycle;Max_cycle;Signal;HPM_P1;HPM_P2
2021/11/13 00:00:51;;;;;;;31.25;25.80;;;;;;;11.67;58.04;102411.09;1721227;82;21062;-54
2021/11/13 00:03:18;;;;;;;31.45;25.92;;;;;;;11.65;58.22;102408.88;1735876;81;21034;-58
2021/11/13 00:05:45;;;;;;;32.78;25.82;;;;;;;11.65;58.26;102410.19;1733129;81;21011;-59
2021/11/13 00:08:12;;;;;;;28.62;25.12;;;;;;;11.66;58.29;102409.33;1733072;81;21034;-56
2021/11/13 00:10:40;;;;;;;32.78;25.85;;;;;;;11.65;58.29;102404.97;1734492;81;21366;-57
2021/11/13 00:13:08;;;;;;;31.77;25.65;;;;;;;11.62;58.31;102411.50;1732316;81;21015;-57
2021/11/13 00:15:37;;;;;;;32.15;25.17;;;;;;;11.62;58.35;102418.02;1737104;82;21042;-59
2021/11/13 00:18:04;;;;;;;30.70;24.82;;;;;;;11.62;58.34;102416.72;1736382;81;21001;-57
2021/11/13 00:20:31;;;;;;;30.35;26.25;;;;;;;11.60;58.34;102411.94;1735481;81;20996;-57
2021/11/13 00:22:58;;;;;;;29.10;24.82;;;;;;;11.60;58.31;102413.24;1723825;81;21023;-58
2021/11/13 00:25:25;;;;;;;31.42;25.12;;;;;;;11.58;58.39;102413.67;1729762;81;21046;-56
2021/11/13 00:27:53;;;;;;;32.10;26.73;;;;;;;11.56;58.51;102416.72;1736470;81;21042;-57
2021/11/13 00:30:20;;;;;;;33.25;26.75;;;;;;;11.54;58.65;102411.94;1735367;81;20995;-54
2021/11/13 00:32:47;;;;;;;33.48;26.45;;;;;;;11.54;58.70;102416.69;1733804;81;21038;-56
2021/11/13 00:35:13;;;;;;;33.78;24.92;;;;;;;11.54;58.67;102415.39;1735525;82;20994;-53
2021/11/13 00:37:40;;;;;;;33.88;26.65;;;;;;;11.56;58.58;102414.11;1736467;81;21070;-53
2021/11/13 00:40:09;;;;;;;33.00;26.30;;;;;;;11.55;58.56;102409.32;1736488;81;21519;-56
2021/11/13 00:42:35;;;;;;;34.80;26.00;;;;;;;11.56;58.53;102415.41;1735167;81;20968;-56
2021/11/13 00:45:02;;;;;;;30.12;24.30;;;;;;;11.57;58.58;102411.92;1733408;81;20975;-55
2021/11/13 00:47:31;;;;;;;32.13;25.65;;;;;;;11.56;58.66;102411.50;1733379;81;21511;-58
2021/11/13 00:49:57;;;;;;;38.17;26.12;;;;;;;11.55;58.73;102409.32;1733382;81;21042;-56
2021/11/13 00:52:24;;;;;;;32.10;25.62;;;;;;;11.56;58.82;102408.90;1733492;81;21531;-57
2021/11/13 00:54:50;;;;;;;33.75;26.15;;;;;;;11.54;58.97;102414.55;1734908;81;21451;-59
2021/11/13 00:57:17;;;;;;;32.42;25.45;;;;;;;11.52;59.16;102408.46;1736430;81;21444;-53
2021/11/13 00:59:44;;;;;;;34.03;27.75;;;;;;;11.50;59.43;102408.44;1735992;81;21562;-54
2021/11/13 01:02:11;;;;;;;30.75;25.57;;;;;;;11.48;59.71;102408.44;1740182;81;20975;-56
2021/11/13 01:04:37;;;;;;;35.43;26.68;;;;;;;11.50;59.93;102411.05;1735032;81;21534;-57
2021/11/13 01:07:06;;;;;;;35.58;26.33;;;;;;;11.51;60.10;102406.70;1731621;82;20984;-54
2021/11/13 01:09:32;;;;;;;31.95;25.95;;;;;;;11.51;60.22;102405.41;1736885;81;21019;-53
2021/11/13 01:12:00;;;;;;;31.97;25.62;;;;;;;11.50;60.36;102399.77;1732089;81;21551;-57
2021/11/13 01:14:28;;;;;;;35.25;26.55;;;;;;;11.46;60.49;102402.36;1730569;81;21011;-56
2021/11/13 01:16:56;;;;;;;32.93;26.50;;;;;;;11.45;60.59;102403.25;1729461;81;21022;-56
2021/11/13 01:19:25;;;;;;;39.70;28.45;;;;;;;11.48;60.66;102405.84;1732747;81;21058;-56
2021/11/13 01:21:52;;;;;;;32.15;26.85;;;;;;;11.52;60.59;102407.16;1732818;81;21023;-58
2021/11/13 01:24:20;;;;;;;35.63;27.93;;;;;;;11.51;60.62;102404.10;1733999;81;21004;-56
2021/11/13 01:26:47;;;;;;;38.45;26.62;;;;;;;11.50;60.69;102401.08;1733803;81;21046;-57
2021/11/13 01:29:14;;;;;;;38.33;29.50;;;;;;;11.51;60.76;102406.70;1731328;81;20998;-56
2021/11/13 01:31:42;;;;;;;42.13;29.02;;;;;;;11.50;60.78;102405.83;1734001;81;21027;-56
2021/11/13 01:34:08;;;;;;;36.88;28.10;;;;;;;11.50;60.88;102403.22;1734720;82;21034;-57
2021/11/13 01:36:35;;;;;;;37.50;28.25;;;;;;;11.51;60.97;102406.70;1734788;81;21059;-56
2021/11/13 01:39:03;;;;;;;36.28;29.05;;;;;;;11.52;60.95;102409.30;1733425;81;21492;-57
2021/11/13 01:41:30;;;;;;;40.08;29.82;;;;;;;11.53;60.92;102407.15;1721968;81;21038;-53
2021/11/13 01:43:56;;;;;;;36.75;28.07;;;;;;;11.53;60.87;102408.88;1733112;81;20971;-56
2021/11/13 01:46:22;;;;;;;34.20;26.62;;;;;;;11.52;60.84;102411.06;1733772;81;21102;-58
2021/11/13 01:48:49;;;;;;;33.30;25.68;;;;;;;11.52;60.85;102409.77;1733843;81;21038;-56
2021/11/13 01:51:24;;;;;;;32.00;25.43;;;;;;;11.50;60.89;102415.41;1731293;81;21019;-52
2021/11/13 01:53:54;;;;;;;29.67;23.38;;;;;;;11.48;60.96;102404.12;1733352;81;21031;-56
2021/11/13 01:56:21;;;;;;;29.00;23.45;;;;;;;11.50;61.02;102406.29;1733597;82;21011;-53
2021/11/13 01:58:52;;;;;;;31.62;24.30;;;;;;;11.50;60.96;102404.98;1734020;82;21067;-53
2021/11/13 02:01:19;;;;;;;31.35;24.63;;;;;;;11.51;60.92;102402.80;1733804;81;21082;-53
2021/11/13 02:03:47;;;;;;;33.18;25.97;;;;;;;11.51;61.05;102406.70;1733005;81;21062;-57
2021/11/13 02:06:16;;;;;;;30.70;25.30;;;;;;;11.50;61.08;102407.59;1737845;81;21055;-57
2021/11/13 02:08:44;;;;;;;30.32;22.87;;;;;;;11.50;60.98;102405.83;1738404;81;20994;-56
2021/11/13 02:11:12;;;;;;;28.02;21.68;;;;;;;11.48;60.86;102408.44;1738894;81;21515;-53
2021/11/13 02:13:39;;;;;;;26.90;20.45;;;;;;;11.46;60.44;102416.70;1734369;81;21020;-57
2021/11/13 02:16:08;;;;;;;26.55;20.30;;;;;;;11.44;60.16;102409.31;1730863;81;21065;-56
2021/11/13 02:18:39;;;;;;;23.38;20.85;;;;;;;11.42;59.98;102415.38;1738363;81;21082;-56
2021/11/13 02:21:06;;;;;;;25.72;20.60;;;;;;;11.41;59.87;102413.66;1732974;81;21078;-56
2021/11/13 02:23:32;;;;;;;26.35;21.10;;;;;;;11.41;59.67;102411.94;1733589;82;20940;-56
2021/11/13 02:25:59;;;;;;;25.70;20.40;;;;;;;11.40;59.51;102414.09;1734890;81;20976;-54
2021/11/13 02:28:28;;;;;;;27.42;20.95;;;;;;;11.39;59.39;102415.39;1721547;81;21039;-57
2021/11/13 02:30:56;;;;;;;28.23;21.12;;;;;;;11.39;59.33;102421.48;1738258;81;21033;-55
2021/11/13 02:33:26;;;;;;;27.37;22.00;;;;;;;11.40;59.30;102421.91;1732900;81;21035;-56
2021/11/13 02:35:55;;;;;;;26.25;21.20;;;;;;;11.40;59.30;102421.91;1733632;82;21512;-56
2021/11/13 02:38:36;;;;;;;28.52;22.10;;;;;;;11.40;58.98;102424.52;1734610;81;21475;-53
2021/11/13 02:41:09;;;;;;;29.20;22.87;;;;;;;11.39;58.86;102418.88;1730340;82;21038;-57
2021/11/13 02:43:37;;;;;;;29.20;23.50;;;;;;;11.39;58.73;102414.09;1734593;81;21010;-55
2021/11/13 02:46:07;;;;;;;28.73;23.65;;;;;;;11.37;58.65;102416.67;1733151;81;21011;-56
2021/11/13 02:48:37;;;;;;;32.33;23.60;;;;;;;11.36;58.66;102420.59;1731554;81;21030;-55
2021/11/13 02:51:05;;;;;;;29.65;23.02;;;;;;;11.34;58.51;102417.98;1730530;81;21074;-53
2021/11/13 02:53:31;;;;;;;30.25;23.05;;;;;;;11.35;58.63;102423.63;1730275;81;20987;-56
2021/11/13 02:55:59;;;;;;;29.30;22.60;;;;;;;11.35;58.65;102421.02;1730460;81;21503;-58
2021/11/13 02:58:26;;;;;;;28.90;23.55;;;;;;;11.36;58.62;102418.86;1669971;84;21545;-53
2021/11/13 03:01:02;;;;;;;26.60;23.32;;;;;;;11.36;58.52;102420.59;1694169;84;21077;-52
2021/11/13 03:03:29;;;;;;;29.45;23.85;;;;;;;11.36;58.53;102427.98;1726411;81;21043;-53
2021/11/13 03:05:57;;;;;;;31.30;23.80;;;;;;;11.37;58.51;102424.95;1731495;81;21145;-56
2021/11/13 03:08:30;;;;;;;29.35;23.12;;;;;;;11.38;58.42;102426.25;1722750;82;21034;-57
2021/11/13 03:11:01;;;;;;;28.87;23.27;;;;;;;11.37;58.53;102428.41;1720457;81;21503;-55
2021/11/13 03:13:29;;;;;;;29.87;23.98;;;;;;;11.36;58.60;102432.31;1722995;81;21604;-53
2021/11/13 03:16:00;;;;;;;29.05;23.62;;;;;;;11.36;58.68;102426.68;1723251;81;21506;-55
2021/11/13 03:18:26;;;;;;;32.38;24.67;;;;;;;11.36;58.69;102424.07;1723015;81;20999;-54
2021/11/13 03:20:53;;;;;;;32.58;24.27;;;;;;;11.36;58.64;102424.07;1720337;82;21042;-56
2021/11/13 03:23:20;;;;;;;31.27;24.18;;;;;;;11.36;58.59;102418.86;1718487;81;21110;-55
2021/11/13 03:25:59;;;;;;;31.50;24.05;;;;;;;11.39;58.44;102423.22;1722665;81;21030;-56
2021/11/13 03:28:27;;;;;;;31.15;25.52;;;;;;;11.43;58.39;102425.83;1723094;81;20983;-56
2021/11/13 03:30:54;;;;;;;29.77;24.43;;;;;;;11.46;58.29;102428.42;1723597;81;21002;-53
2021/11/13 03:33:21;;;;;;;32.60;24.00;;;;;;;11.48;58.17;102426.69;1720173;81;21026;-56
2021/11/13 03:35:48;;;;;;;26.73;22.42;;;;;;;11.46;58.21;102424.94;1726000;81;21075;-57
2021/11/13 03:38:16;;;;;;;31.55;25.17;;;;;;;11.43;58.25;102424.95;1724423;81;21015;-55
2021/11/13 03:40:45;;;;;;;31.25;24.02;;;;;;;11.39;58.33;102424.09;1729741;81;21014;-55
2021/11/13 03:43:12;;;;;;;32.28;25.00;;;;;;;11.38;58.41;102426.67;1738200;82;21605;-55
2021/11/13 03:45:40;;;;;;;30.52;24.47;;;;;;;11.35;58.38;102431.44;1724955;82;21034;-53
2021/11/13 03:48:07;;;;;;;27.98;23.50;;;;;;;11.35;58.48;102427.53;1735846;81;20992;-57
2021/11/13 03:50:35;;;;;;;30.48;23.60;;;;;;;11.36;58.43;102431.89;1734149;81;20999;-54
2021/11/13 03:53:02;;;;;;;30.97;24.32;;;;;;;11.37;58.43;102427.10;1732879;81;20980;-56
2021/11/13 03:55:32;;;;;;;31.33;24.02;;;;;;;11.38;58.49;102432.77;1730568;81;21003;-55
2021/11/13 03:57:59;;;;;;;32.35;25.27;;;;;;;11.39;58.49;102431.91;1732002;81;21054;-52
2021/11/13 04:00:26;;;;;;;30.25;24.72;;;;;;;11.39;58.53;102431.03;1730855;81;21078;-53
2021/11/13 04:02:53;;;;;;;29.90;24.07;;;;;;;11.39;58.46;102430.61;1731356;81;21067;-56
2021/11/13 04:05:21;;;;;;;31.95;25.27;;;;;;;11.37;58.55;102432.31;1728541;81;21027;-52
2021/11/13 04:07:49;;;;;;;31.20;25.08;;;;;;;11.37;58.61;102434.92;1735139;81;21062;-52
2021/11/13 04:10:15;;;;;;;30.60;24.57;;;;;;;11.39;58.58;102441.46;1733010;81;21456;-57
2021/11/13 04:12:43;;;;;;;31.48;24.77;;;;;;;11.40;58.58;102440.15;1730851;82;21211;-52
2021/11/13 04:15:12;;;;;;;32.93;26.10;;;;;;;11.40;58.62;102438.84;1732986;81;21035;-55
2021/11/13 04:17:40;;;;;;;29.67;23.77;;;;;;;11.40;58.62;102439.27;1730828;81;21023;-55
2021/11/13 04:20:10;;;;;;;29.55;23.83;;;;;;;11.40;58.67;102447.97;1731411;81;21023;-57
2021/11/13 04:22:39;;;;;;;29.05;24.20;;;;;;;11.37;58.76;102446.64;1730853;81;20983;-55
2021/11/13 04:25:06;;;;;;;29.40;23.62;;;;;;;11.35;58.91;102450.14;1728857;81;21011;-55
2021/11/13 04:27:33;;;;;;;30.60;25.08;;;;;;;11.33;59.01;102450.58;1732475;81;21054;-56
2021/11/13 04:30:00;;;;;;;29.30;24.40;;;;;;;11.32;59.16;102447.09;1732725;81;21510;-55
2021/11/13 04:32:33;;;;;;;30.70;25.32;;;;;;;11.31;59.23;102444.48;1733751;82;21511;-55
2021/11/13 04:37:26;;;;;;;29.48;23.87;;;;;;;11.27;59.53;102450.10;1721927;81;20992;-55
2021/11/13 04:39:53;;;;;;;31.07;24.12;;;;;;;11.24;59.74;102450.54;1731774;81;21526;-55
2021/11/13 04:42:19;;;;;;;33.58;25.45;;;;;;;11.22;59.96;102454.88;1734021;81;21487;-55
2021/11/13 04:44:46;;;;;;;38.98;25.35;;;;;;;11.20;60.09;102453.58;1733883;82;21491;-52
2021/11/13 04:47:13;;;;;;;32.48;23.22;;;;;;;11.17;60.25;102456.16;1729301;82;21002;-56
2021/11/13 04:49:40;;;;;;;32.35;23.98;;;;;;;11.15;60.42;102455.29;1736932;81;21015;-54
2021/11/13 04:52:07;;;;;;;33.05;25.00;;;;;;;11.14;60.48;102458.77;1732240;81;21020;-53
2021/11/13 04:54:34;;;;;;;30.23;24.63;;;;;;;11.11;60.66;102463.97;1730762;81;21047;-52
2021/11/13 04:57:00;;;;;;;33.33;25.43;;;;;;;11.10;60.61;102466.15;1730981;81;21523;-55
2021/11/13 04:59:28;;;;;;;31.70;24.57;;;;;;;11.09;60.71;102467.42;1732112;81;21094;-53
2021/11/13 05:01:54;;;;;;;30.17;24.92;;;;;;;11.06;60.83;102460.49;1726267;82;21034;-55
2021/11/13 05:04:21;;;;;;;33.08;23.62;;;;;;;11.08;60.79;102462.67;1733912;81;21055;-56
2021/11/13 05:06:47;;;;;;;29.40;23.62;;;;;;;11.09;60.78;102464.39;1731980;81;21484;-58
2021/11/13 05:09:15;;;;;;;33.25;24.47;;;;;;;11.09;60.68;102464.39;1731341;81;21066;-55
2021/11/13 05:11:41;;;;;;;31.45;24.43;;;;;;;11.08;60.63;102470.48;1731258;81;21031;-57
2021/11/13 05:14:08;;;;;;;32.65;24.60;;;;;;;11.08;60.59;102470.48;1730715;81;21038;-55
2021/11/13 05:16:35;;;;;;;35.38;27.13;;;;;;;11.08;60.61;102474.39;1731245;81;20995;-54
2021/11/13 05:19:02;;;;;;;34.25;26.42;;;;;;;11.06;60.59;102470.91;1734687;81;21527;-57
2021/11/13 05:21:29;;;;;;;32.60;26.52;;;;;;;11.06;60.66;102477.84;1734046;81;21574;-55
2021/11/13 05:23:55;;;;;;;28.83;24.12;;;;;;;11.07;60.64;102479.57;1738357;81;21055;-55
2021/11/13 05:26:22;;;;;;;31.62;24.43;;;;;;;11.06;60.65;102486.54;1732602;81;21502;-55
2021/11/13 05:28:49;;;;;;;31.40;26.33;;;;;;;11.07;60.66;102492.17;1721069;81;20956;-56
2021/11/13 05:31:15;;;;;;;30.55;23.12;;;;;;;11.10;60.58;102489.59;1735073;81;21041;-58
2021/11/13 05:33:43;;;;;;;31.82;24.12;;;;;;;11.14;60.52;102496.98;1738321;81;21083;-56
2021/11/13 05:36:10;;;;;;;32.55;24.00;;;;;;;11.15;60.42;102490.46;1733885;81;20999;-53
2021/11/13 05:38:36;;;;;;;30.00;25.25;;;;;;;11.20;60.35;102497.87;1735383;82;20983;-52
2021/11/13 05:41:02;;;;;;;30.75;23.35;;;;;;;11.23;60.33;102508.29;1734049;81;21479;-55
2021/11/13 05:43:30;;;;;;;28.90;23.45;;;;;;;11.27;60.22;102510.50;1733905;81;21521;-57
2021/11/13 05:45:56;;;;;;;33.45;26.45;;;;;;;11.27;60.18;102510.04;1731609;81;21029;-58
2021/11/13 05:48:23;;;;;;;30.90;24.10;;;;;;;11.31;60.13;102506.58;1723619;81;21086;-56
2021/11/13 05:50:50;;;;;;;29.80;23.52;;;;;;;11.39;60.01;102511.41;1735285;81;21027;-53
2021/11/13 05:53:16;;;;;;;33.40;25.23;;;;;;;11.41;59.98;102506.19;1730903;82;21080;-55
2021/11/13 05:55:43;;;;;;;32.83;24.87;;;;;;;11.47;59.83;102512.72;1730261;81;21057;-56
2021/11/13 05:58:09;;;;;;;29.48;23.70;;;;;;;11.51;59.65;102517.50;1731190;81;20964;-55
2021/11/13 06:00:36;;;;;;;33.45;24.80;;;;;;;11.55;59.67;102517.94;1732594;81;21061;-52
2021/11/13 06:03:02;;;;;;;32.38;25.08;;;;;;;11.59;59.74;102517.95;1731351;81;21024;-52
2021/11/13 06:05:29;;;;;;;31.15;24.40;;;;;;;11.68;59.76;102521.05;1734367;81;20999;-55
2021/11/13 06:07:55;;;;;;;31.90;24.05;;;;;;;11.77;59.69;102522.35;1736542;81;21026;-58
2021/11/13 06:10:22;;;;;;;29.32;24.12;;;;;;;11.87;59.50;102521.52;1735971;81;21570;-56
2021/11/13 06:12:48;;;;;;;30.60;24.37;;;;;;;11.95;59.53;102521.09;1732880;81;21025;-54
2021/11/13 06:15:15;;;;;;;31.93;24.45;;;;;;;12.08;59.46;102516.30;1738529;82;21051;-55
2021/11/13 06:17:42;;;;;;;28.57;24.35;;;;;;;12.24;59.08;102521.97;1735586;81;21460;-53
2021/11/13 06:20:10;;;;;;;30.88;24.30;;;;;;;12.36;58.61;102517.16;1719033;82;21078;-52
2021/11/13 06:22:38;;;;;;;28.70;23.52;;;;;;;12.41;58.29;102525.41;1736428;81;20971;-55
2021/11/13 06:25:08;;;;;;;34.15;24.95;;;;;;;12.47;57.96;102525.40;1736353;81;21027;-55
2021/11/13 06:27:36;;;;;;;29.10;25.70;;;;;;;12.44;58.02;102526.73;1734918;81;20987;-56
2021/11/13 06:30:06;;;;;;;33.90;26.60;;;;;;;12.40;58.05;102521.50;1733042;81;21016;-55
2021/11/13 06:32:32;;;;;;;29.72;25.25;;;;;;;12.34;58.09;102525.00;1723048;81;21002;-55
2021/11/13 06:35:01;;;;;;;29.10;24.87;;;;;;;12.34;58.24;102528.92;1738835;81;21558;-52
2021/11/13 06:37:29;;;;;;;30.15;24.98;;;;;;;12.31;58.40;102530.20;1731772;82;21011;-52
2021/11/13 06:39:56;;;;;;;33.38;25.68;;;;;;;12.29;58.58;102537.17;1737286;81;21027;-52
2021/11/13 06:42:22;;;;;;;31.40;25.00;;;;;;;12.28;58.75;102533.69;1736352;81;21006;-55
2021/11/13 06:44:49;;;;;;;31.07;25.90;;;;;;;12.29;58.89;102537.17;1732958;81;21003;-54
2021/11/13 06:47:15;;;;;;;32.93;24.63;;;;;;;12.30;59.00;102527.61;1732914;81;21030;-55
2021/11/13 06:49:41;;;;;;;35.03;25.52;;;;;;;12.31;59.22;102535.43;1733120;81;21570;-56
2021/11/13 06:52:08;;;;;;;36.13;26.23;;;;;;;12.31;59.46;102535.43;1733102;81;21000;-52
2021/11/13 06:54:35;;;;;;;29.72;24.98;;;;;;;12.32;59.59;102531.97;1734289;81;21011;-56
2021/11/13 06:57:05;;;;;;;31.60;25.20;;;;;;;12.35;59.66;102530.64;1736184;81;21015;-58
2021/11/13 06:59:33;;;;;;;32.35;25.35;;;;;;;12.37;59.67;102536.73;1736443;81;21018;-55
2021/11/13 07:02:00;;;;;;;30.85;26.05;;;;;;;12.40;59.83;102540.66;1734570;81;21046;-58
2021/11/13 07:04:26;;;;;;;32.90;25.48;;;;;;;12.44;59.86;102533.26;1734307;81;21035;-54
2021/11/13 07:06:53;;;;;;;32.58;26.33;;;;;;;12.46;59.83;102534.13;1738109;82;21035;-59
2021/11/13 07:09:19;;;;;;;35.45;25.05;;;;;;;12.48;59.94;102535.42;1739364;81;21137;-55
2021/11/13 07:11:46;;;;;;;30.50;24.67;;;;;;;12.51;59.99;102533.66;1732299;81;20975;-55
2021/11/13 07:14:15;;;;;;;29.72;25.05;;;;;;;12.57;60.01;102538.03;1743597;80;21074;-53
2021/11/13 07:16:43;;;;;;;34.90;25.60;;;;;;;12.60;60.08;102532.78;1743835;80;21034;-54
2021/11/13 07:19:11;;;;;;;30.57;25.62;;;;;;;12.64;59.89;102538.43;1738299;80;21047;-53
2021/11/13 07:21:39;;;;;;;34.20;26.20;;;;;;;12.69;59.88;102533.66;1741374;80;21021;-53
2021/11/13 07:24:08;;;;;;;31.00;25.70;;;;;;;12.74;59.85;102534.49;1741010;81;21071;-52
2021/11/13 07:26:35;;;;;;;30.08;25.05;;;;;;;12.78;60.01;102536.22;1735819;81;20967;-53
2021/11/13 07:31:32;;;;;;;36.17;25.32;;;;;;;12.83;60.11;102531.87;1694560;83;21035;-57
2021/11/13 07:33:58;;;;;;;30.50;25.85;;;;;;;12.83;60.13;102528.37;1692073;83;21001;-54
2021/11/13 07:36:25;;;;;;;37.25;27.10;;;;;;;12.85;60.04;102534.04;1690066;83;21183;-54
2021/11/13 07:38:52;;;;;;;29.60;25.77;;;;;;;12.84;60.11;102532.71;1685551;84;21021;-55
2021/11/13 07:41:21;;;;;;;32.65;26.42;;;;;;;12.81;60.17;102533.62;1687578;83;21006;-52
2021/11/13 07:43:48;;;;;;;33.40;27.58;;;;;;;12.78;60.13;102533.61;1679697;83;21008;-54
2021/11/13 07:46:14;;;;;;;32.28;26.10;;;;;;;12.72;60.41;102538.85;1679400;83;21194;-54
2021/11/13 07:48:41;;;;;;;38.15;27.70;;;;;;;12.73;60.58;102535.38;1694124;83;21044;-51
2021/11/13 07:51:10;;;;;;;36.20;28.32;;;;;;;12.78;60.88;102540.57;1679032;83;21072;-55
2021/11/13 07:53:37;;;;;;;30.65;26.37;;;;;;;12.83;61.06;102537.09;1668097;84;21017;-55
2021/11/13 07:56:05;;;;;;;33.25;27.15;;;;;;;12.90;60.92;102544.02;1693180;84;21116;-53
2021/11/13 07:58:31;;;;;;;36.75;27.35;;;;;;;12.93;61.00;102538.80;1690079;83;21577;-53
2021/11/13 08:00:58;;;;;;;36.42;28.17;;;;;;;13.00;60.88;102548.34;1690555;83;21521;-53
2021/11/13 08:03:24;;;;;;;34.23;26.55;;;;;;;13.03;60.45;102541.81;1692077;83;20958;-53
2021/11/13 08:05:51;;;;;;;34.33;26.82;;;;;;;13.06;60.40;102548.35;1698607;83;20966;-53
2021/11/13 08:08:18;;;;;;;35.03;27.00;;;;;;;13.08;60.39;102542.27;1681268;84;21010;-58
2021/11/13 08:10:46;;;;;;;31.73;26.48;;;;;;;13.11;60.39;102544.88;1670964;84;21477;-58
2021/11/13 08:13:16;;;;;;;32.65;26.15;;;;;;;13.15;60.54;102552.68;1672763;84;21507;-54
2021/11/13 08:15:46;;;;;;;40.63;27.83;;;;;;;13.19;60.55;102549.17;1667981;84;21518;-54
2021/11/13 08:18:13;;;;;;;31.62;24.47;;;;;;;13.21;60.63;102555.73;1676061;84;21047;-55
2021/11/13 08:20:40;;;;;;;32.00;27.02;;;;;;;13.27;60.61;102557.02;1667883;83;20974;-51
2021/11/13 08:23:09;;;;;;;36.55;28.07;;;;;;;13.30;60.73;102553.06;1666089;84;21402;-55
2021/11/13 08:25:40;;;;;;;31.07;26.57;;;;;;;13.36;60.80;102554.33;1668697;84;21481;-55
2021/11/13 08:28:08;;;;;;;33.73;24.95;;;;;;;13.42;60.77;102559.53;1692130;84;21554;-53
2021/11/13 08:30:36;;;;;;;29.12;24.98;;;;;;;13.44;60.77;102561.70;1699593;82;21530;-55
2021/11/13 08:33:02;;;;;;;31.33;25.80;;;;;;;13.48;60.85;102556.89;1717528;82;21551;-56
2021/11/13 08:35:30;;;;;;;34.75;26.33;;;;;;;13.54;61.08;102556.42;1713534;82;21043;-55
2021/11/13 08:37:57;;;;;;;32.38;24.82;;;;;;;13.61;61.30;102549.41;1697270;82;21037;-55
2021/11/13 08:40:25;;;;;;;28.38;24.75;;;;;;;13.74;61.23;102557.62;1709831;82;21030;-54
2021/11/13 08:42:51;;;;;;;30.48;24.77;;;;;;;13.86;61.26;102554.93;1730644;82;21077;-55
2021/11/13 08:45:18;;;;;;;29.87;25.08;;;;;;;13.95;61.06;102554.00;1704987;82;20986;-54
2021/11/13 08:47:45;;;;;;;29.18;24.63;;;;;;;14.02;60.78;102559.17;1714429;82;20978;-54
2021/11/13 08:50:18;;;;;;;28.20;24.02;;;;;;;14.08;60.68;102548.66;1705272;82;21045;-54
2021/11/13 08:52:47;;;;;;;29.45;24.32;;;;;;;14.13;60.53;102549.50;1710721;82;21514;-56
2021/11/13 08:55:14;;;;;;;30.05;24.20;;;;;;;14.22;60.74;102552.02;1677309;84;21086;-52
2021/11/13 08:57:43;;;;;;;24.60;20.30;;;;;;;14.32;60.86;102553.71;1669685;84;21050;-51
2021/11/13 09:00:12;;;;;;;24.12;18.23;;;;;;;14.44;61.13;102547.09;1664470;84;21082;-52
2021/11/13 09:02:38;;;;;;;14.00;11.08;;;;;;;14.57;61.26;102544.75;1684410;84;21719;-55
2021/11/13 09:05:06;;;;;;;13.78;9.93;;;;;;;14.74;61.58;102545.89;1669108;84;21546;-55
2021/11/13 09:07:33;;;;;;;11.88;8.80;;;;;;;14.88;61.62;102549.70;1667946;84;21030;-54
2021/11/13 09:10:00;;;;;;;11.08;8.58;;;;;;;15.03;61.68;102533.77;1676190;84;21598;-52
2021/11/13 09:12:28;;;;;;;10.48;8.85;;;;;;;15.18;61.43;102537.53;1677028;84;21046;-54
2021/11/13 09:15:17;;;;;;;11.70;8.43;;;;;;;15.33;61.17;102538.66;1679298;84;21580;-56
2021/11/13 09:17:44;;;;;;;14.93;9.05;;;;;;;15.45;60.79;102535.90;1641071;86;21050;-54
2021/11/13 09:20:11;;;;;;;10.68;8.85;;;;;;;15.56;60.57;102530.03;1610729;87;21021;-52
2021/11/13 09:22:39;;;;;;;10.15;8.48;;;;;;;15.67;60.21;102532.07;1629996;87;21089;-52
2021/11/13 09:25:09;;;;;;;9.75;8.18;;;;;;;15.77;59.87;102531.05;1634018;87;20995;-54
2021/11/13 09:27:37;;;;;;;10.70;7.53;;;;;;;15.86;59.49;102533.98;1629755;87;21047;-53
2021/11/13 09:30:06;;;;;;;12.98;9.10;;;;;;;15.92;59.41;102532.13;1630366;87;21107;-52
2021/11/13 09:32:34;;;;;;;10.43;8.50;;;;;;;16.00;59.27;102530.25;1627874;87;21010;-54
2021/11/13 09:35:00;;;;;;;11.68;8.43;;;;;;;16.08;59.01;102529.67;1628940;87;21017;-53
2021/11/13 09:37:29;;;;;;;13.15;8.15;;;;;;;16.16;58.76;102530.41;1619810;87;21310;-55
2021/11/13 09:39:56;;;;;;;11.30;8.50;;;;;;;16.21;58.66;102523.34;1622253;86;21037;-54
2021/11/13 09:42:22;;;;;;;10.50;8.10;;;;;;;16.27;58.49;102529.80;1630390;87;21027;-56
2021/11/13 09:44:49;;;;;;;9.73;7.72;;;;;;;16.33;58.17;102537.13;1623904;87;20987;-52
2021/11/13 09:47:16;;;;;;;9.40;7.85;;;;;;;16.35;58.07;102535.34;1635371;87;20978;-50
2021/11/13 09:49:44;;;;;;;11.00;8.18;;;;;;;16.37;58.12;102534.44;1629368;87;21115;-53
2021/11/13 09:52:15;;;;;;;9.45;7.83;;;;;;;16.41;57.96;102540.49;1659068;84;21051;-53
2021/11/13 09:54:42;;;;;;;8.95;8.05;;;;;;;16.41;57.96;102537.86;1685092;84;21502;-53
2021/11/13 09:57:09;;;;;;;13.43;8.20;;;;;;;16.41;57.88;102536.55;1691210;84;21468;-50
2021/11/13 09:59:36;;;;;;;10.30;8.15;;;;;;;16.43;58.04;102534.77;1691117;83;21559;-53
2021/11/13 10:02:04;;;;;;;11.22;7.80;;;;;;;16.44;58.00;102531.26;1704198;83;21129;-53
2021/11/13 10:04:31;;;;;;;10.88;8.38;;;;;;;16.48;58.08;102537.75;1707362;83;21579;-59
2021/11/13 10:06:58;;;;;;;10.30;7.60;;;;;;;16.50;57.87;102529.87;1738648;81;21076;-55
2021/11/13 10:09:25;;;;;;;14.23;8.15;;;;;;;16.51;57.62;102531.58;1736977;81;21078;-50
2021/11/13 10:11:53;;;;;;;9.68;8.50;;;;;;;16.51;57.51;102528.95;1735238;81;21078;-55
2021/11/13 10:14:37;;;;;;;11.70;8.08;;;;;;;16.50;57.41;102528.55;1739751;82;21566;-53
2021/11/13 10:17:24;;;;;;;11.83;7.95;;;;;;;16.50;57.42;102526.80;1697512;83;21039;-57
2021/11/13 10:19:52;;;;;;;11.45;7.87;;;;;;;16.52;57.17;102524.13;1713787;83;21144;-53
2021/11/13 10:22:19;;;;;;;13.93;8.65;;;;;;;16.52;57.18;102526.33;1707385;83;20971;-51
2021/11/13 10:24:50;;;;;;;34.73;25.17;;;;;;;16.52;57.10;102526.33;1705362;84;21098;-55
2021/11/13 10:27:17;;;;;;;49.10;32.25;;;;;;;16.53;57.08;102525.85;1711058;83;21810;-53
2021/11/13 10:29:47;;;;;;;19.40;15.38;;;;;;;16.52;57.16;102526.33;1697109;84;21003;-53
2021/11/13 10:32:17;;;;;;;13.13;9.85;;;;;;;16.51;57.08;102520.63;1707805;83;21036;-54
2021/11/13 10:34:49;;;;;;;10.75;9.15;;;;;;;16.52;57.22;102525.45;1711283;83;21019;-54
2021/11/13 10:37:23;;;;;;;11.70;9.05;;;;;;;16.53;57.29;102527.16;1700365;83;20991;-54
2021/11/13 10:39:52;;;;;;;14.68;9.40;;;;;;;16.51;57.18;102526.33;1671254;86;21227;-54
2021/11/13 10:42:22;;;;;;;10.85;8.70;;;;;;;16.50;57.08;102531.18;1666259;86;21117;-51
2021/11/13 10:45:00;;;;;;;11.50;9.68;;;;;;;16.49;56.99;102528.08;1670606;85;21532;-50
2021/11/13 10:47:38;;;;;;;15.70;12.07;;;;;;;16.46;57.20;102532.09;1672869;85;21042;-55
2021/11/13 10:50:20;;;;;;;14.53;13.03;;;;;;;16.45;57.48;102532.97;1666271;85;21451;-52
2021/11/13 10:53:02;;;;;;;14.98;10.78;;;;;;;16.43;57.55;102530.82;1673054;85;21527;-53
2021/11/13 10:55:29;;;;;;;11.43;9.73;;;;;;;16.43;57.68;102533.45;1675551;85;21031;-51
2021/11/13 10:57:56;;;;;;;10.72;8.65;;;;;;;16.42;57.77;102533.05;1671098;84;21012;-51
2021/11/13 11:00:24;;;;;;;11.88;9.05;;;;;;;16.41;57.70;102535.23;1617365;85;21039;-53
2021/11/13 11:03:05;;;;;;;11.28;9.40;;;;;;;16.38;57.70;102528.74;1673046;85;21140;-55
2021/11/13 11:05:49;;;;;;;14.03;9.68;;;;;;;16.35;57.73;102535.34;1627065;86;21034;-53
2021/11/13 11:08:29;;;;;;;16.05;11.65;;;;;;;16.32;57.73;102533.66;1586560;88;21086;-50
2021/11/13 11:10:58;;;;;;;12.30;9.90;;;;;;;16.28;57.81;102532.83;1546362;91;21122;-53
2021/11/13 11:13:50;;;;;;;13.85;10.65;;;;;;;16.26;57.95;102538.55;1550004;91;21592;-51
2021/11/13 11:16:27;;;;;;;15.23;11.20;;;;;;;16.22;57.86;102533.38;1595103;88;21045;-53
2021/11/13 11:19:13;;;;;;;13.80;11.40;;;;;;;16.19;57.91;102533.00;1560333;91;21086;-51
2021/11/13 11:21:54;;;;;;;23.75;21.20;;;;;;;16.18;57.75;102537.82;1565828;90;21051;-50